Google Maps JavaScript API Example
Pilot Flight Report # 93697 Submitted by : AST195 on 2020-02-12
Date: 2020-02-12Aircraft: Boeing 737-800
Flight No.: AST0789Distance (Nm): 661.47
Departure: KORD - Chicago-O'Hare InternationalDestination: KBTV - Burlington International
 TimeFuelWeightSpeeds  
Out (Taxi)1630 Flight RulesIFR
Off (Takeoff)1630 Flight Level
On (Landing)1844 VSTD
In (Ramp)1844 ZFW
Flight2.23  -  2:1433  Pax0
Block2.23  -  2:1433  Cargo0
Departure WeatherKORD 121751Z 22011KT 10SM FEW110 SCT150 OVC250 02/M05 A3000 RMK AO2 SLP166 T00221050 10028 21044 58014 $
Destination WeatherKBTV 121754Z 28005KT 10SM FEW045 BKN200 03/M09 A3006 RMK AO2 SLP183 4/012 T00281089 10028 21006 58018
Flight CommentsN/A